createdAt,value
2017-12-10T00:08:57.466Z,3.03
2017-12-10T00:29:31.826Z,3.30
2017-12-10T00:50:02.786Z,3.65
2017-12-10T01:10:40.823Z,3.62
2017-12-10T01:31:18.242Z,3.40
2017-12-10T01:51:50.438Z,3.33
2017-12-10T02:12:25.712Z,3.50
2017-12-10T02:32:59.165Z,4.20
2017-12-10T02:53:34.105Z,3.40
2017-12-10T03:14:05.385Z,4.18
2017-12-10T03:34:42.500Z,3.75
2017-12-10T03:55:17.770Z,4.57
2017-12-10T04:15:53.107Z,4.78
2017-12-10T04:36:31.715Z,4.45
2017-12-10T04:57:11.051Z,4.80
2017-12-10T05:17:44.996Z,4.30
2017-12-10T05:38:19.351Z,4.43
2017-12-10T05:58:56.786Z,4.10
2017-12-10T06:19:30.815Z,4.03
2017-12-10T06:40:03.935Z,4.87
2017-12-10T07:00:37.053Z,3.28
2017-12-10T07:21:08.331Z,2.50
2017-12-10T07:41:43.607Z,2.45
2017-12-10T08:20:20.783Z,2.10
2017-12-10T08:40:52.752Z,2.10
2017-12-10T09:01:27.204Z,1.70
2017-12-10T09:22:00.217Z,2.50
2017-12-10T09:42:33.344Z,2.33
2017-12-10T10:03:10.458Z,1.67
2017-12-10T10:23:44.807Z,1.25
2017-12-10T10:44:17.009Z,1.10
2017-12-10T11:04:53.236Z,1.30
2017-12-10T11:25:27.603Z,1.30
2017-12-10T11:46:00.673Z,1.23
2017-12-10T12:06:36.190Z,1.80
2017-12-10T12:27:09.070Z,2.30
2017-12-10T12:47:41.265Z,1.50
2017-12-10T13:08:15.618Z,1.75
2017-12-10T13:28:54.075Z,1.70
2017-12-10T13:49:29.849Z,1.92
2017-12-10T14:10:05.435Z,1.90
2017-12-10T14:30:38.298Z,2.22
2017-12-10T14:51:08.603Z,3.27
2017-12-10T15:11:50.285Z,3.23
2017-12-10T15:32:27.516Z,3.70
2017-12-10T15:53:00.559Z,6.00
2017-12-10T16:13:32.760Z,2.97
2017-12-10T16:34:10.800Z,6.90
2017-12-10T16:54:44.225Z,4.77
2017-12-10T17:15:17.345Z,4.70
2017-12-10T17:35:54.820Z,5.27
2017-12-10T17:56:29.121Z,4.00
2017-12-10T18:17:01.934Z,3.60
2017-12-10T18:37:36.466Z,3.43
2017-12-10T18:58:13.722Z,3.87
2017-12-10T19:18:44.677Z,3.90
2017-12-10T19:39:20.872Z,2.90
2017-12-10T19:59:57.387Z,2.60
2017-12-10T20:38:34.336Z,2.67
2017-12-10T20:59:11.125Z,3.23
2017-12-10T21:19:49.163Z,3.10
2017-12-10T21:40:24.731Z,1.20
2017-12-10T22:00:59.086Z,1.73
2017-12-10T22:21:34.353Z,1.30
2017-12-10T22:42:07.478Z,1.50
2017-12-10T23:02:38.752Z,2.47
2017-12-10T23:23:14.949Z,1.80
2017-12-10T23:43:48.066Z,1.90
